sensor_id;sensor_type;location;lat;lon;timestamp;P1;durP1;ratioP1;P2;durP2;ratioP2
54599;SDS011;40500;51.084;16.958;2023-04-24T00:00:31;12.50;;;8.90;;
54599;SDS011;40500;51.084;16.958;2023-04-24T00:03:02;13.20;;;10.40;;
54599;SDS011;40500;51.084;16.958;2023-04-24T00:05:33;12.80;;;9.50;;
54599;SDS011;40500;51.084;16.958;2023-04-24T00:08:04;13.30;;;10.10;;
54599;SDS011;40500;51.084;16.958;2023-04-24T00:10:34;12.70;;;9.30;;
54599;SDS011;40500;51.084;16.958;2023-04-24T00:13:04;14.50;;;9.50;;
54599;SDS011;40500;51.084;16.958;2023-04-24T00:15:35;14.10;;;10.10;;
54599;SDS011;40500;51.084;16.958;2023-04-24T00:18:05;15.50;;;9.90;;
54599;SDS011;40500;51.084;16.958;2023-04-24T00:20:36;13.00;;;9.70;;
54599;SDS011;40500;51.084;16.958;2023-04-24T00:23:07;13.50;;;10.00;;
54599;SDS011;40500;51.084;16.958;2023-04-24T00:25:37;12.20;;;9.20;;
54599;SDS011;40500;51.084;16.958;2023-04-24T00:28:08;12.10;;;9.40;;
54599;SDS011;40500;51.084;16.958;2023-04-24T00:30:38;11.90;;;9.10;;
54599;SDS011;40500;51.084;16.958;2023-04-24T00:33:09;15.90;;;9.70;;
54599;SDS011;40500;51.084;16.958;2023-04-24T00:35:40;11.50;;;9.20;;
54599;SDS011;40500;51.084;16.958;2023-04-24T00:38:11;13.30;;;9.00;;
54599;SDS011;40500;51.084;16.958;2023-04-24T00:40:42;10.40;;;8.40;;
54599;SDS011;40500;51.084;16.958;2023-04-24T00:43:12;11.10;;;7.80;;
54599;SDS011;40500;51.084;16.958;2023-04-24T00:45:43;11.60;;;8.80;;
54599;SDS011;40500;51.084;16.958;2023-04-24T00:48:13;13.10;;;9.00;;
54599;SDS011;40500;51.084;16.958;2023-04-24T00:50:44;11.60;;;8.40;;
54599;SDS011;40500;51.084;16.958;2023-04-24T00:53:15;10.80;;;8.20;;
54599;SDS011;40500;51.084;16.958;2023-04-24T00:55:46;11.20;;;8.30;;
54599;SDS011;40500;51.084;16.958;2023-04-24T00:58:16;9.80;;;8.20;;
54599;SDS011;40500;51.084;16.958;2023-04-24T01:00:47;13.20;;;9.30;;
54599;SDS011;40500;51.084;16.958;2023-04-24T01:03:20;10.90;;;8.70;;
54599;SDS011;40500;51.084;16.958;2023-04-24T01:05:54;10.40;;;7.50;;
54599;SDS011;40500;51.084;16.958;2023-04-24T01:08:25;11.80;;;8.20;;
54599;SDS011;40500;51.084;16.958;2023-04-24T01:10:57;9.80;;;7.80;;
54599;SDS011;40500;51.084;16.958;2023-04-24T01:13:28;12.50;;;8.70;;
54599;SDS011;40500;51.084;16.958;2023-04-24T01:15:59;12.90;;;9.10;;
54599;SDS011;40500;51.084;16.958;2023-04-24T01:18:29;11.10;;;8.40;;
54599;SDS011;40500;51.084;16.958;2023-04-24T01:21:01;11.10;;;7.80;;
54599;SDS011;40500;51.084;16.958;2023-04-24T01:23:35;11.30;;;8.50;;
54599;SDS011;40500;51.084;16.958;2023-04-24T01:26:05;11.10;;;8.70;;
54599;SDS011;40500;51.084;16.958;2023-04-24T01:28:37;14.30;;;8.40;;
54599;SDS011;40500;51.084;16.958;2023-04-24T01:31:10;12.40;;;9.10;;
54599;SDS011;40500;51.084;16.958;2023-04-24T01:33:42;10.20;;;7.90;;
54599;SDS011;40500;51.084;16.958;2023-04-24T01:36:13;10.80;;;7.50;;
54599;SDS011;40500;51.084;16.958;2023-04-24T01:38:45;11.80;;;8.30;;
54599;SDS011;40500;51.084;16.958;2023-04-24T01:41:16;11.50;;;8.10;;
54599;SDS011;40500;51.084;16.958;2023-04-24T01:43:47;12.30;;;8.60;;
54599;SDS011;40500;51.084;16.958;2023-04-24T01:46:20;13.30;;;8.10;;
54599;SDS011;40500;51.084;16.958;2023-04-24T01:48:51;12.50;;;8.30;;
54599;SDS011;40500;51.084;16.958;2023-04-24T01:51:22;11.60;;;7.60;;
54599;SDS011;40500;51.084;16.958;2023-04-24T01:53:52;11.80;;;8.00;;
54599;SDS011;40500;51.084;16.958;2023-04-24T01:56:23;10.00;;;7.60;;
54599;SDS011;40500;51.084;16.958;2023-04-24T01:58:57;10.30;;;7.80;;
54599;SDS011;40500;51.084;16.958;2023-04-24T02:01:31;10.40;;;7.70;;
54599;SDS011;40500;51.084;16.958;2023-04-24T02:04:04;11.60;;;7.70;;
54599;SDS011;40500;51.084;16.958;2023-04-24T02:06:36;12.50;;;7.80;;
54599;SDS011;40500;51.084;16.958;2023-04-24T02:09:06;9.20;;;7.30;;
54599;SDS011;40500;51.084;16.958;2023-04-24T02:11:38;10.00;;;7.90;;
54599;SDS011;40500;51.084;16.958;2023-04-24T02:14:08;12.60;;;7.80;;
54599;SDS011;40500;51.084;16.958;2023-04-24T02:16:40;9.50;;;7.30;;
54599;SDS011;40500;51.084;16.958;2023-04-24T02:19:11;11.50;;;8.10;;
54599;SDS011;40500;51.084;16.958;2023-04-24T02:21:42;10.00;;;7.90;;
54599;SDS011;40500;51.084;16.958;2023-04-24T02:24:12;12.10;;;8.70;;
54599;SDS011;40500;51.084;16.958;2023-04-24T02:26:43;11.70;;;8.20;;
54599;SDS011;40500;51.084;16.958;2023-04-24T02:29:13;11.80;;;8.60;;
54599;SDS011;40500;51.084;16.958;2023-04-24T02:31:44;9.80;;;7.70;;
54599;SDS011;40500;51.084;16.958;2023-04-24T02:34:14;11.00;;;8.20;;
54599;SDS011;40500;51.084;16.958;2023-04-24T02:36:45;10.00;;;7.50;;
54599;SDS011;40500;51.084;16.958;2023-04-24T02:39:15;11.30;;;7.20;;
54599;SDS011;40500;51.084;16.958;2023-04-24T02:41:46;9.30;;;7.00;;
54599;SDS011;40500;51.084;16.958;2023-04-24T02:44:17;9.10;;;6.30;;
54599;SDS011;40500;51.084;16.958;2023-04-24T02:46:47;7.80;;;6.80;;
54599;SDS011;40500;51.084;16.958;2023-04-24T02:49:18;13.00;;;7.70;;
54599;SDS011;40500;51.084;16.958;2023-04-24T02:51:48;11.20;;;7.10;;
54599;SDS011;40500;51.084;16.958;2023-04-24T02:54:18;9.60;;;7.50;;
54599;SDS011;40500;51.084;16.958;2023-04-24T02:56:49;12.60;;;7.90;;
54599;SDS011;40500;51.084;16.958;2023-04-24T02:59:19;8.70;;;7.00;;
54599;SDS011;40500;51.084;16.958;2023-04-24T03:01:50;10.00;;;7.20;;
54599;SDS011;40500;51.084;16.958;2023-04-24T03:04:20;11.80;;;6.80;;
54599;SDS011;40500;51.084;16.958;2023-04-24T03:06:51;9.50;;;7.70;;
54599;SDS011;40500;51.084;16.958;2023-04-24T03:09:22;9.00;;;7.20;;
54599;SDS011;40500;51.084;16.958;2023-04-24T03:11:56;11.40;;;7.80;;
54599;SDS011;40500;51.084;16.958;2023-04-24T03:14:27;8.90;;;7.70;;
54599;SDS011;40500;51.084;16.958;2023-04-24T03:16:58;8.90;;;7.50;;
54599;SDS011;40500;51.084;16.958;2023-04-24T03:19:29;7.80;;;6.30;;
54599;SDS011;40500;51.084;16.958;2023-04-24T03:22:09;9.50;;;7.30;;
54599;SDS011;40500;51.084;16.958;2023-04-24T03:24:40;8.30;;;7.30;;
54599;SDS011;40500;51.084;16.958;2023-04-24T03:27:11;8.90;;;7.40;;
54599;SDS011;40500;51.084;16.958;2023-04-24T03:30:05;8.70;;;7.10;;
54599;SDS011;40500;51.084;16.958;2023-04-24T03:32:51;11.80;;;6.90;;
54599;SDS011;40500;51.084;16.958;2023-04-24T03:35:25;10.90;;;7.00;;
54599;SDS011;40500;51.084;16.958;2023-04-24T03:37:57;7.90;;;7.00;;
54599;SDS011;40500;51.084;16.958;2023-04-24T03:40:53;9.40;;;6.30;;
54599;SDS011;40500;51.084;16.958;2023-04-24T03:43:39;6.60;;;5.70;;
54599;SDS011;40500;51.084;16.958;2023-04-24T03:46:10;9.40;;;7.80;;
54599;SDS011;40500;51.084;16.958;2023-04-24T03:48:45;8.80;;;7.70;;
54599;SDS011;40500;51.084;16.958;2023-04-24T03:51:18;10.30;;;7.40;;
54599;SDS011;40500;51.084;16.958;2023-04-24T03:53:51;8.60;;;7.10;;
54599;SDS011;40500;51.084;16.958;2023-04-24T03:56:22;10.60;;;7.40;;
54599;SDS011;40500;51.084;16.958;2023-04-24T03:58:52;9.60;;;7.70;;
54599;SDS011;40500;51.084;16.958;2023-04-24T04:01:23;10.00;;;6.90;;
54599;SDS011;40500;51.084;16.958;2023-04-24T04:04:06;9.50;;;7.00;;
54599;SDS011;40500;51.084;16.958;2023-04-24T04:06:37;10.70;;;7.80;;
54599;SDS011;40500;51.084;16.958;2023-04-24T04:09:08;7.60;;;6.40;;
54599;SDS011;40500;51.084;16.958;2023-04-24T04:11:38;11.80;;;8.60;;
54599;SDS011;40500;51.084;16.958;2023-04-24T04:14:08;8.20;;;7.20;;
54599;SDS011;40500;51.084;16.958;2023-04-24T04:16:40;8.20;;;7.30;;
54599;SDS011;40500;51.084;16.958;2023-04-24T04:19:12;8.50;;;7.10;;
54599;SDS011;40500;51.084;16.958;2023-04-24T04:21:42;8.90;;;7.60;;
54599;SDS011;40500;51.084;16.958;2023-04-24T04:24:29;9.30;;;7.10;;
54599;SDS011;40500;51.084;16.958;2023-04-24T04:27:00;9.60;;;6.50;;
54599;SDS011;40500;51.084;16.958;2023-04-24T04:29:36;8.20;;;7.00;;
54599;SDS011;40500;51.084;16.958;2023-04-24T04:32:08;8.80;;;7.10;;
54599;SDS011;40500;51.084;16.958;2023-04-24T04:34:39;9.20;;;7.00;;
54599;SDS011;40500;51.084;16.958;2023-04-24T04:37:11;9.70;;;6.70;;
54599;SDS011;40500;51.084;16.958;2023-04-24T04:39:53;8.90;;;6.80;;
54599;SDS011;40500;51.084;16.958;2023-04-24T04:42:27;10.70;;;7.20;;
54599;SDS011;40500;51.084;16.958;2023-04-24T04:44:58;7.00;;;6.30;;
54599;SDS011;40500;51.084;16.958;2023-04-24T04:47:37;7.80;;;7.00;;
54599;SDS011;40500;51.084;16.958;2023-04-24T04:50:09;11.00;;;6.60;;
54599;SDS011;40500;51.084;16.958;2023-04-24T04:52:39;9.20;;;7.30;;
54599;SDS011;40500;51.084;16.958;2023-04-24T04:55:22;8.20;;;6.80;;
54599;SDS011;40500;51.084;16.958;2023-04-24T04:58:14;8.30;;;6.60;;
54599;SDS011;40500;51.084;16.958;2023-04-24T05:00:45;7.90;;;6.10;;
54599;SDS011;40500;51.084;16.958;2023-04-24T05:03:21;9.20;;;6.30;;
54599;SDS011;40500;51.084;16.958;2023-04-24T05:05:58;8.50;;;6.70;;
54599;SDS011;40500;51.084;16.958;2023-04-24T05:08:30;10.50;;;6.90;;
54599;SDS011;40500;51.084;16.958;2023-04-24T05:11:00;7.50;;;6.30;;
54599;SDS011;40500;51.084;16.958;2023-04-24T05:13:32;9.20;;;7.30;;
54599;SDS011;40500;51.084;16.958;2023-04-24T05:16:12;9.50;;;6.20;;
54599;SDS011;40500;51.084;16.958;2023-04-24T05:18:42;9.60;;;6.40;;
54599;SDS011;40500;51.084;16.958;2023-04-24T05:21:15;8.70;;;6.20;;
54599;SDS011;40500;51.084;16.958;2023-04-24T05:23:49;9.30;;;6.60;;
54599;SDS011;40500;51.084;16.958;2023-04-24T05:26:29;8.50;;;7.10;;
54599;SDS011;40500;51.084;16.958;2023-04-24T05:29:00;13.70;;;7.70;;
54599;SDS011;40500;51.084;16.958;2023-04-24T05:31:31;7.90;;;6.60;;
54599;SDS011;40500;51.084;16.958;2023-04-24T05:34:03;9.40;;;7.00;;
54599;SDS011;40500;51.084;16.958;2023-04-24T05:36:35;8.90;;;6.90;;
54599;SDS011;40500;51.084;16.958;2023-04-24T05:39:05;9.30;;;6.30;;
54599;SDS011;40500;51.084;16.958;2023-04-24T05:41:36;10.30;;;7.30;;
54599;SDS011;40500;51.084;16.958;2023-04-24T05:44:06;10.80;;;7.00;;
54599;SDS011;40500;51.084;16.958;2023-04-24T05:46:37;11.30;;;7.40;;
54599;SDS011;40500;51.084;16.958;2023-04-24T05:49:09;9.50;;;7.00;;
54599;SDS011;40500;51.084;16.958;2023-04-24T05:51:40;11.30;;;7.20;;
54599;SDS011;40500;51.084;16.958;2023-04-24T05:54:11;9.20;;;6.50;;
54599;SDS011;40500;51.084;16.958;2023-04-24T05:56:42;7.60;;;5.50;;
54599;SDS011;40500;51.084;16.958;2023-04-24T05:59:18;8.00;;;5.20;;
54599;SDS011;40500;51.084;16.958;2023-04-24T06:01:48;8.20;;;5.00;;
54599;SDS011;40500;51.084;16.958;2023-04-24T06:04:21;6.40;;;4.70;;
54599;SDS011;40500;51.084;16.958;2023-04-24T06:06:55;6.80;;;4.60;;
54599;SDS011;40500;51.084;16.958;2023-04-24T06:09:25;6.70;;;4.70;;
54599;SDS011;40500;51.084;16.958;2023-04-24T06:11:57;4.80;;;4.20;;
54599;SDS011;40500;51.084;16.958;2023-04-24T06:14:34;5.40;;;4.30;;
54599;SDS011;40500;51.084;16.958;2023-04-24T06:17:18;8.70;;;4.20;;
54599;SDS011;40500;51.084;16.958;2023-04-24T06:19:48;5.80;;;4.00;;
54599;SDS011;40500;51.084;16.958;2023-04-24T06:22:19;5.10;;;4.30;;
54599;SDS011;40500;51.084;16.958;2023-04-24T06:24:50;8.20;;;4.20;;
54599;SDS011;40500;51.084;16.958;2023-04-24T06:27:20;6.10;;;4.30;;
54599;SDS011;40500;51.084;16.958;2023-04-24T06:29:51;6.00;;;4.40;;
54599;SDS011;40500;51.084;16.958;2023-04-24T06:32:23;7.00;;;4.50;;
54599;SDS011;40500;51.084;16.958;2023-04-24T06:34:55;5.00;;;4.00;;
54599;SDS011;40500;51.084;16.958;2023-04-24T06:37:26;5.30;;;4.30;;
54599;SDS011;40500;51.084;16.958;2023-04-24T06:39:56;4.80;;;4.10;;
54599;SDS011;40500;51.084;16.958;2023-04-24T06:42:27;8.30;;;4.90;;
54599;SDS011;40500;51.084;16.958;2023-04-24T06:44:57;5.10;;;4.70;;
54599;SDS011;40500;51.084;16.958;2023-04-24T06:47:27;8.10;;;4.00;;
54599;SDS011;40500;51.084;16.958;2023-04-24T06:49:58;6.40;;;4.40;;
54599;SDS011;40500;51.084;16.958;2023-04-24T06:52:29;9.70;;;4.60;;
54599;SDS011;40500;51.084;16.958;2023-04-24T06:55:03;7.70;;;4.50;;
54599;SDS011;40500;51.084;16.958;2023-04-24T06:57:35;5.10;;;4.60;;
54599;SDS011;40500;51.084;16.958;2023-04-24T07:00:07;6.30;;;4.60;;
54599;SDS011;40500;51.084;16.958;2023-04-24T07:02:38;7.20;;;4.80;;
54599;SDS011;40500;51.084;16.958;2023-04-24T07:05:09;11.00;;;5.30;;
54599;SDS011;40500;51.084;16.958;2023-04-24T07:07:40;10.70;;;4.80;;
54599;SDS011;40500;51.084;16.958;2023-04-24T07:10:11;13.20;;;4.90;;
54599;SDS011;40500;51.084;16.958;2023-04-24T07:12:42;22.30;;;5.90;;
54599;SDS011;40500;51.084;16.958;2023-04-24T07:15:12;8.60;;;4.80;;
54599;SDS011;40500;51.084;16.958;2023-04-24T07:17:43;7.10;;;4.40;;
54599;SDS011;40500;51.084;16.958;2023-04-24T07:20:14;7.60;;;5.00;;
54599;SDS011;40500;51.084;16.958;2023-04-24T07:22:44;7.60;;;4.80;;
54599;SDS011;40500;51.084;16.958;2023-04-24T07:25:15;7.50;;;4.70;;
54599;SDS011;40500;51.084;16.958;2023-04-24T07:27:46;5.30;;;4.40;;
54599;SDS011;40500;51.084;16.958;2023-04-24T07:30:16;9.00;;;4.20;;
54599;SDS011;40500;51.084;16.958;2023-04-24T07:32:47;12.30;;;4.60;;
54599;SDS011;40500;51.084;16.958;2023-04-24T07:35:17;7.30;;;4.00;;
54599;SDS011;40500;51.084;16.958;2023-04-24T07:37:48;6.70;;;4.20;;
54599;SDS011;40500;51.084;16.958;2023-04-24T07:40:19;6.90;;;3.70;;
54599;SDS011;40500;51.084;16.958;2023-04-24T07:42:50;7.00;;;4.50;;
54599;SDS011;40500;51.084;16.958;2023-04-24T07:45:20;9.20;;;4.60;;
54599;SDS011;40500;51.084;16.958;2023-04-24T07:47:53;4.10;;;3.70;;
54599;SDS011;40500;51.084;16.958;2023-04-24T07:50:24;4.40;;;3.50;;
54599;SDS011;40500;51.084;16.958;2023-04-24T07:52:54;4.00;;;3.20;;
54599;SDS011;40500;51.084;16.958;2023-04-24T07:55:25;3.30;;;3.00;;
54599;SDS011;40500;51.084;16.958;2023-04-24T07:57:55;4.60;;;3.30;;
54599;SDS011;40500;51.084;16.958;2023-04-24T08:00:26;3.30;;;3.00;;
54599;SDS011;40500;51.084;16.958;2023-04-24T08:02:56;4.70;;;3.20;;
54599;SDS011;40500;51.084;16.958;2023-04-24T08:05:27;3.20;;;2.90;;
54599;SDS011;40500;51.084;16.958;2023-04-24T08:07:58;4.10;;;2.60;;
54599;SDS011;40500;51.084;16.958;2023-04-24T08:10:28;3.10;;;2.60;;
54599;SDS011;40500;51.084;16.958;2023-04-24T08:12:58;3.70;;;3.20;;
54599;SDS011;40500;51.084;16.958;2023-04-24T08:15:29;3.00;;;2.40;;
54599;SDS011;40500;51.084;16.958;2023-04-24T08:17:59;3.70;;;2.80;;
54599;SDS011;40500;51.084;16.958;2023-04-24T08:20:30;3.30;;;3.00;;
54599;SDS011;40500;51.084;16.958;2023-04-24T08:23:00;3.90;;;3.00;;
54599;SDS011;40500;51.084;16.958;2023-04-24T08:25:31;3.60;;;3.00;;
54599;SDS011;40500;51.084;16.958;2023-04-24T08:28:06;4.20;;;2.80;;
54599;SDS011;40500;51.084;16.958;2023-04-24T08:30:38;4.80;;;2.40;;
54599;SDS011;40500;51.084;16.958;2023-04-24T08:33:09;53.20;;;4.90;;
54599;SDS011;40500;51.084;16.958;2023-04-24T08:35:39;23.80;;;4.00;;
54599;SDS011;40500;51.084;16.958;2023-04-24T08:38:09;8.70;;;3.30;;
54599;SDS011;40500;51.084;16.958;2023-04-24T08:40:40;14.20;;;3.50;;
54599;SDS011;40500;51.084;16.958;2023-04-24T08:43:11;7.10;;;2.90;;
54599;SDS011;40500;51.084;16.958;2023-04-24T08:45:42;4.80;;;2.20;;
54599;SDS011;40500;51.084;16.958;2023-04-24T08:48:12;4.00;;;2.50;;
54599;SDS011;40500;51.084;16.958;2023-04-24T08:50:58;5.10;;;3.40;;
54599;SDS011;40500;51.084;16.958;2023-04-24T08:53:30;5.00;;;3.20;;
54599;SDS011;40500;51.084;16.958;2023-04-24T08:56:03;4.10;;;3.20;;
54599;SDS011;40500;51.084;16.958;2023-04-24T08:58:33;4.00;;;3.10;;
54599;SDS011;40500;51.084;16.958;2023-04-24T09:01:05;3.40;;;2.80;;
54599;SDS011;40500;51.084;16.958;2023-04-24T09:03:36;4.40;;;3.40;;
54599;SDS011;40500;51.084;16.958;2023-04-24T09:06:08;5.30;;;3.80;;
54599;SDS011;40500;51.084;16.958;2023-04-24T09:08:39;4.10;;;2.90;;
54599;SDS011;40500;51.084;16.958;2023-04-24T09:11:12;4.60;;;3.50;;
54599;SDS011;40500;51.084;16.958;2023-04-24T09:13:42;5.10;;;3.70;;
54599;SDS011;40500;51.084;16.958;2023-04-24T09:16:13;4.20;;;3.40;;
54599;SDS011;40500;51.084;16.958;2023-04-24T09:18:44;3.50;;;3.20;;
54599;SDS011;40500;51.084;16.958;2023-04-24T09:21:15;3.80;;;3.10;;
54599;SDS011;40500;51.084;16.958;2023-04-24T09:23:45;5.70;;;3.50;;
54599;SDS011;40500;51.084;16.958;2023-04-24T09:26:26;4.30;;;3.50;;
54599;SDS011;40500;51.084;16.958;2023-04-24T09:29:00;4.80;;;4.00;;
54599;SDS011;40500;51.084;16.958;2023-04-24T09:31:31;4.20;;;3.50;;
54599;SDS011;40500;51.084;16.958;2023-04-24T09:34:03;3.90;;;3.50;;
54599;SDS011;40500;51.084;16.958;2023-04-24T09:36:35;4.10;;;3.70;;
54599;SDS011;40500;51.084;16.958;2023-04-24T09:39:09;8.70;;;4.50;;
54599;SDS011;40500;51.084;16.958;2023-04-24T09:41:46;10.90;;;4.00;;
54599;SDS011;40500;51.084;16.958;2023-04-24T09:44:18;9.30;;;4.20;;
54599;SDS011;40500;51.084;16.958;2023-04-24T09:46:51;5.20;;;4.40;;
54599;SDS011;40500;51.084;16.958;2023-04-24T09:49:23;4.90;;;4.20;;
54599;SDS011;40500;51.084;16.958;2023-04-24T09:52:03;10.80;;;4.20;;
54599;SDS011;40500;51.084;16.958;2023-04-24T09:54:35;6.10;;;3.90;;
54599;SDS011;40500;51.084;16.958;2023-04-24T09:57:06;7.70;;;4.10;;
54599;SDS011;40500;51.084;16.958;2023-04-24T09:59:39;4.00;;;3.50;;
54599;SDS011;40500;51.084;16.958;2023-04-24T10:02:17;4.20;;;3.70;;
54599;SDS011;40500;51.084;16.958;2023-04-24T10:04:55;7.50;;;4.20;;
54599;SDS011;40500;51.084;16.958;2023-04-24T10:07:28;4.80;;;4.20;;
54599;SDS011;40500;51.084;16.958;2023-04-24T10:10:01;5.50;;;3.70;;
54599;SDS011;40500;51.084;16.958;2023-04-24T10:12:32;3.70;;;3.40;;
54599;SDS011;40500;51.084;16.958;2023-04-24T10:15:04;20.90;;;4.80;;
54599;SDS011;40500;51.084;16.958;2023-04-24T10:17:36;21.50;;;5.70;;
54599;SDS011;40500;51.084;16.958;2023-04-24T10:20:08;17.50;;;4.60;;
54599;SDS011;40500;51.084;16.958;2023-04-24T10:22:39;6.70;;;4.50;;
54599;SDS011;40500;51.084;16.958;2023-04-24T10:25:10;4.70;;;3.90;;
54599;SDS011;40500;51.084;16.958;2023-04-24T10:27:41;6.30;;;4.00;;
54599;SDS011;40500;51.084;16.958;2023-04-24T10:30:15;7.40;;;3.80;;
54599;SDS011;40500;51.084;16.958;2023-04-24T10:32:46;5.10;;;3.10;;
54599;SDS011;40500;51.084;16.958;2023-04-24T10:35:16;5.30;;;3.10;;
54599;SDS011;40500;51.084;16.958;2023-04-24T10:37:51;5.30;;;3.80;;
54599;SDS011;40500;51.084;16.958;2023-04-24T10:40:26;5.40;;;3.90;;
54599;SDS011;40500;51.084;16.958;2023-04-24T10:43:01;8.80;;;4.10;;
54599;SDS011;40500;51.084;16.958;2023-04-24T10:45:34;9.40;;;3.40;;
54599;SDS011;40500;51.084;16.958;2023-04-24T10:48:04;7.60;;;3.90;;
54599;SDS011;40500;51.084;16.958;2023-04-24T10:50:44;6.60;;;3.60;;
54599;SDS011;40500;51.084;16.958;2023-04-24T10:53:16;11.80;;;3.50;;
54599;SDS011;40500;51.084;16.958;2023-04-24T10:55:49;13.30;;;3.90;;
54599;SDS011;40500;51.084;16.958;2023-04-24T10:58:22;11.40;;;4.60;;
54599;SDS011;40500;51.084;16.958;2023-04-24T11:01:03;6.00;;;3.40;;
54599;SDS011;40500;51.084;16.958;2023-04-24T11:03:35;7.60;;;4.30;;
54599;SDS011;40500;51.084;16.958;2023-04-24T11:06:09;9.40;;;4.50;;
54599;SDS011;40500;51.084;16.958;2023-04-24T11:08:43;6.10;;;3.80;;
54599;SDS011;40500;51.084;16.958;2023-04-24T11:11:16;9.00;;;4.10;;
54599;SDS011;40500;51.084;16.958;2023-04-24T11:14:02;6.50;;;4.30;;
54599;SDS011;40500;51.084;16.958;2023-04-24T11:16:44;4.80;;;3.80;;
54599;SDS011;40500;51.084;16.958;2023-04-24T11:19:20;5.00;;;4.50;;
54599;SDS011;40500;51.084;16.958;2023-04-24T11:21:57;4.90;;;4.40;;
54599;SDS011;40500;51.084;16.958;2023-04-24T11:24:30;4.20;;;3.80;;
54599;SDS011;40500;51.084;16.958;2023-04-24T11:29:40;4.00;;;2.90;;
54599;SDS011;40500;51.084;16.958;2023-04-24T11:32:19;3.80;;;3.30;;
54599;SDS011;40500;51.084;16.958;2023-04-24T11:34:55;5.30;;;2.90;;
54599;SDS011;40500;51.084;16.958;2023-04-24T11:37:29;3.40;;;2.90;;
54599;SDS011;40500;51.084;16.958;2023-04-24T11:40:02;3.30;;;3.00;;
54599;SDS011;40500;51.084;16.958;2023-04-24T11:42:35;3.70;;;3.40;;
54599;SDS011;40500;51.084;16.958;2023-04-24T11:45:09;4.10;;;2.70;;
54599;SDS011;40500;51.084;16.958;2023-04-24T11:47:41;4.20;;;2.90;;
54599;SDS011;40500;51.084;16.958;2023-04-24T11:50:13;3.50;;;3.10;;
54599;SDS011;40500;51.084;16.958;2023-04-24T11:52:46;2.40;;;2.20;;
54599;SDS011;40500;51.084;16.958;2023-04-24T11:55:25;2.60;;;2.40;;
54599;SDS011;40500;51.084;16.958;2023-04-24T11:57:57;4.20;;;2.70;;
54599;SDS011;40500;51.084;16.958;2023-04-24T12:00:29;2.90;;;2.60;;
54599;SDS011;40500;51.084;16.958;2023-04-24T12:03:08;5.60;;;3.70;;
54599;SDS011;40500;51.084;16.958;2023-04-24T12:05:40;6.60;;;3.20;;
54599;SDS011;40500;51.084;16.958;2023-04-24T12:08:13;4.30;;;3.00;;
54599;SDS011;40500;51.084;16.958;2023-04-24T12:10:57;3.20;;;2.90;;
54599;SDS011;40500;51.084;16.958;2023-04-24T12:13:28;3.60;;;2.60;;
54599;SDS011;40500;51.084;16.958;2023-04-24T12:15:58;2.90;;;2.50;;
54599;SDS011;40500;51.084;16.958;2023-04-24T12:18:30;3.50;;;2.70;;
54599;SDS011;40500;51.084;16.958;2023-04-24T12:26:18;2.50;;;2.20;;
54599;SDS011;40500;51.084;16.958;2023-04-24T12:28:50;4.70;;;3.10;;
54599;SDS011;40500;51.084;16.958;2023-04-24T12:31:21;5.20;;;3.70;;
54599;SDS011;40500;51.084;16.958;2023-04-24T12:33:52;4.70;;;3.10;;
54599;SDS011;40500;51.084;16.958;2023-04-24T12:36:23;9.20;;;3.60;;
54599;SDS011;40500;51.084;16.958;2023-04-24T12:38:54;3.50;;;3.20;;
54599;SDS011;40500;51.084;16.958;2023-04-24T12:41:24;7.50;;;3.00;;
54599;SDS011;40500;51.084;16.958;2023-04-24T12:43:55;4.80;;;2.70;;
54599;SDS011;40500;51.084;16.958;2023-04-24T12:46:25;4.30;;;2.70;;
54599;SDS011;40500;51.084;16.958;2023-04-24T12:48:55;4.70;;;3.00;;
54599;SDS011;40500;51.084;16.958;2023-04-24T12:51:26;4.30;;;2.90;;
54599;SDS011;40500;51.084;16.958;2023-04-24T12:53:56;2.80;;;2.50;;
54599;SDS011;40500;51.084;16.958;2023-04-24T12:56:27;2.70;;;2.10;;
54599;SDS011;40500;51.084;16.958;2023-04-24T12:58:58;2.40;;;1.60;;
54599;SDS011;40500;51.084;16.958;2023-04-24T13:01:28;5.50;;;1.40;;
54599;SDS011;40500;51.084;16.958;2023-04-24T13:03:59;1.40;;;1.30;;
54599;SDS011;40500;51.084;16.958;2023-04-24T13:06:29;1.70;;;1.50;;
54599;SDS011;40500;51.084;16.958;2023-04-24T13:09:00;3.40;;;1.40;;
54599;SDS011;40500;51.084;16.958;2023-04-24T13:11:31;2.00;;;1.50;;
54599;SDS011;40500;51.084;16.958;2023-04-24T13:14:01;2.40;;;1.40;;
54599;SDS011;40500;51.084;16.958;2023-04-24T13:16:32;2.90;;;2.00;;
54599;SDS011;40500;51.084;16.958;2023-04-24T13:19:03;3.40;;;1.70;;
54599;SDS011;40500;51.084;16.958;2023-04-24T13:21:33;3.40;;;2.00;;
54599;SDS011;40500;51.084;16.958;2023-04-24T13:24:04;3.70;;;1.70;;
54599;SDS011;40500;51.084;16.958;2023-04-24T13:26:35;3.50;;;1.80;;
54599;SDS011;40500;51.084;16.958;2023-04-24T13:29:05;4.10;;;2.10;;
54599;SDS011;40500;51.084;16.958;2023-04-24T13:31:36;3.70;;;2.00;;
54599;SDS011;40500;51.084;16.958;2023-04-24T13:34:06;2.20;;;1.50;;
54599;SDS011;40500;51.084;16.958;2023-04-24T13:36:37;3.10;;;1.70;;
54599;SDS011;40500;51.084;16.958;2023-04-24T13:39:07;3.10;;;1.80;;
54599;SDS011;40500;51.084;16.958;2023-04-24T13:41:38;3.80;;;1.60;;
54599;SDS011;40500;51.084;16.958;2023-04-24T13:44:08;2.20;;;1.40;;
54599;SDS011;40500;51.084;16.958;2023-04-24T13:46:39;4.40;;;1.50;;
54599;SDS011;40500;51.084;16.958;2023-04-24T13:49:09;3.20;;;1.40;;
54599;SDS011;40500;51.084;16.958;2023-04-24T13:51:40;6.00;;;1.70;;
54599;SDS011;40500;51.084;16.958;2023-04-24T13:54:11;3.90;;;1.80;;
54599;SDS011;40500;51.084;16.958;2023-04-24T13:56:41;4.40;;;1.40;;
54599;SDS011;40500;51.084;16.958;2023-04-24T13:59:12;2.60;;;1.30;;
54599;SDS011;40500;51.084;16.958;2023-04-24T14:01:43;5.00;;;1.60;;
54599;SDS011;40500;51.084;16.958;2023-04-24T14:04:13;2.20;;;1.10;;
54599;SDS011;40500;51.084;16.958;2023-04-24T14:06:44;2.30;;;1.10;;
54599;SDS011;40500;51.084;16.958;2023-04-24T14:09:15;2.20;;;1.80;;
54599;SDS011;40500;51.084;16.958;2023-04-24T14:11:45;4.20;;;1.70;;
54599;SDS011;40500;51.084;16.958;2023-04-24T14:14:16;5.10;;;2.20;;
54599;SDS011;40500;51.084;16.958;2023-04-24T14:16:46;8.00;;;1.60;;
54599;SDS011;40500;51.084;16.958;2023-04-24T14:19:16;2.40;;;1.40;;
54599;SDS011;40500;51.084;16.958;2023-04-24T14:21:47;3.50;;;1.60;;
54599;SDS011;40500;51.084;16.958;2023-04-24T14:24:18;2.10;;;1.20;;
54599;SDS011;40500;51.084;16.958;2023-04-24T14:26:48;1.80;;;1.20;;
54599;SDS011;40500;51.084;16.958;2023-04-24T14:29:19;1.90;;;1.10;;
54599;SDS011;40500;51.084;16.958;2023-04-24T14:31:49;1.30;;;1.20;;
54599;SDS011;40500;51.084;16.958;2023-04-24T14:34:20;2.30;;;1.10;;
54599;SDS011;40500;51.084;16.958;2023-04-24T14:36:50;1.70;;;1.30;;
54599;SDS011;40500;51.084;16.958;2023-04-24T14:39:21;2.10;;;1.60;;
54599;SDS011;40500;51.084;16.958;2023-04-24T14:41:51;1.50;;;1.30;;
54599;SDS011;40500;51.084;16.958;2023-04-24T14:44:22;4.20;;;1.80;;
54599;SDS011;40500;51.084;16.958;2023-04-24T14:46:53;2.30;;;1.70;;
54599;SDS011;40500;51.084;16.958;2023-04-24T14:49:24;3.80;;;2.20;;
54599;SDS011;40500;51.084;16.958;2023-04-24T14:51:54;4.80;;;2.50;;
54599;SDS011;40500;51.084;16.958;2023-04-24T14:54:25;4.90;;;2.40;;
54599;SDS011;40500;51.084;16.958;2023-04-24T14:56:55;5.00;;;2.60;;
54599;SDS011;40500;51.084;16.958;2023-04-24T14:59:26;2.80;;;2.00;;
54599;SDS011;40500;51.084;16.958;2023-04-24T15:01:59;3.70;;;2.30;;
54599;SDS011;40500;51.084;16.958;2023-04-24T15:04:43;2.00;;;1.70;;
54599;SDS011;40500;51.084;16.958;2023-04-24T15:07:14;2.80;;;1.60;;